»·PEaware :: GSA1337 KRNO-KSBA

GSA1337 :: KRNO-KSBA

FLIGHT INFORMATION

Flight Status: Arrived
Operator:
Global Sim Alliance
More flights by this operator :: More flights under this callsign
Pilot: Brandon G. (13)
Aircraft: BOEING 737-800
(B738)
More flights by this aircraft type
Origin: KRNO Reno/Tahoe Intl
United States
Destination: KSBA Santa Barbara Mun
United States
More flights between these airports :: More routes between these airports
Route: ZEFFR6 DARBI FRA J7 REBRG DERBB RZS
File this flight plan on PilotEdge
Remarks:
Altitude:
(Current/Filed)
34,000ft
Speed:
(Current/Filed)
425kts
Departed: 01-Jan-18 07:38 PM
Arrived: 01-Jan-18 08:32 PM
Distance/Time
Traveled:
304nm/0:54
Distance/Time
To Go:
Arrived

Flight Plot

Page will automatically refresh every two minutes.

Flight plan parsing failed; only flown route is shown


Map Options




Map Legend


Flown Route
Filed Route
Departure Airport
Arrival Airport
Navaid (VOR, NDB)
Fix

Horizontal Profiles

Position Reports

Time Latitude Longitude Heading Altitude Ground
Speed
01-Jan-18 18:58 39.504464 -119.772782 355 4413ft 0kts
01-Jan-18 18:59 39.504464 -119.772782 355 4413ft 0kts
01-Jan-18 19:00 39.504464 -119.772782 355 4413ft 0kts
01-Jan-18 19:01 39.504464 -119.772782 355 4413ft 0kts
01-Jan-18 19:02 39.504464 -119.772782 355 4413ft 0kts
01-Jan-18 19:03 39.504464 -119.772782 355 4413ft 0kts
01-Jan-18 19:04 39.504464 -119.772782 355 4413ft 0kts
01-Jan-18 19:05 39.504464 -119.772782 355 4413ft 0kts
01-Jan-18 19:06 39.504464 -119.772782 355 4413ft 0kts
01-Jan-18 19:07 39.504464 -119.772782 355 4413ft 0kts
01-Jan-18 19:08 39.504464 -119.772782 355 4413ft 0kts
01-Jan-18 19:09 39.504464 -119.772782 355 4413ft 0kts
01-Jan-18 19:10 39.504464 -119.772782 355 4413ft 0kts
01-Jan-18 19:11 39.504464 -119.772782 355 4413ft 0kts
01-Jan-18 19:12 39.504464 -119.772782 355 4413ft 0kts
01-Jan-18 19:13 39.504464 -119.772782 355 4413ft 0kts
01-Jan-18 19:14 39.504464 -119.772782 355 4413ft 0kts
01-Jan-18 19:15 39.504464 -119.772782 355 4413ft 0kts
01-Jan-18 19:16 39.504464 -119.772782 355 4413ft 0kts
01-Jan-18 19:17 39.504464 -119.772782 355 4413ft 0kts
01-Jan-18 19:18 39.504464 -119.772782 355 4413ft 0kts
01-Jan-18 19:19 39.504464 -119.772782 355 4413ft 0kts
01-Jan-18 19:20 39.504464 -119.772782 355 4413ft 0kts
01-Jan-18 19:21 39.504464 -119.772782 355 4413ft 0kts
01-Jan-18 19:22 39.504464 -119.772782 355 4413ft 0kts
01-Jan-18 19:23 39.504464 -119.772782 355 4413ft 0kts
01-Jan-18 19:24 39.504464 -119.772782 355 4413ft 0kts
01-Jan-18 19:25 39.504464 -119.772782 355 4413ft 0kts
01-Jan-18 19:26 39.504464 -119.772782 355 4413ft 0kts
01-Jan-18 19:27 39.504464 -119.772782 355 4413ft 0kts
01-Jan-18 19:28 39.504194 -119.772755 355 4413ft 2kts
01-Jan-18 19:29 39.503736 -119.773128 77 4413ft 2kts
01-Jan-18 19:30 39.503728 -119.773311 90 4414ft 0kts
01-Jan-18 19:31 39.503728 -119.773311 90 4414ft 0kts
01-Jan-18 19:32 39.503728 -119.773311 90 4414ft 0kts
01-Jan-18 19:33 39.503728 -119.773311 90 4414ft 0kts
01-Jan-18 19:34 39.503728 -119.773311 90 4414ft 0kts
01-Jan-18 19:35 39.503728 -119.773311 90 4414ft 0kts
01-Jan-18 19:36 39.503728 -119.773311 90 4414ft 0kts
01-Jan-18 19:37 39.503727 -119.773238 90 4414ft 0kts
01-Jan-18 19:38 39.503721 -119.772548 90 4412ft 8kts
01-Jan-18 19:39 39.506525 -119.771502 359 4413ft 15kts
01-Jan-18 19:40 39.511954 -119.771471 359 4418ft 21kts
01-Jan-18 19:41 39.513742 -119.770529 90 4418ft 0kts
01-Jan-18 19:42 39.513742 -119.770529 90 4418ft 0kts
01-Jan-18 19:43 39.513620 -119.769500 121 4418ft 6kts
01-Jan-18 19:44 39.492757 -119.769149 178 4647ft 187kts
01-Jan-18 19:45 39.434474 -119.770040 180 7199ft 230kts
01-Jan-18 19:46 39.364742 -119.769613 180 9459ft 283kts
01-Jan-18 19:47 39.281837 -119.768501 177 12552ft 320kts
01-Jan-18 19:48 39.192697 -119.764979 178 16183ft 331kts
01-Jan-18 19:49 39.099956 -119.761474 178 19471ft 344kts
01-Jan-18 19:50 39.003912 -119.757872 180 22392ft 360kts
01-Jan-18 19:51 38.902929 -119.754103 181 24990ft 378kts
01-Jan-18 19:52 38.804677 -119.750445 181 27288ft 393kts
01-Jan-18 19:53 38.695645 -119.746377 182 29554ft 408kts
01-Jan-18 19:54 38.581825 -119.742127 182 31648ft 422kts
01-Jan-18 19:55 38.463915 -119.737712 183 33711ft 432kts
01-Jan-18 19:56 38.343717 -119.733266 183 34384ft 451kts
01-Jan-18 19:57 38.219421 -119.722651 179 34378ft 454kts
01-Jan-18 19:58 38.095299 -119.708266 179 34383ft 454kts
01-Jan-18 19:59 37.971528 -119.694147 179 34325ft 454kts
01-Jan-18 20:00 37.853407 -119.680700 179 34291ft 454kts
01-Jan-18 20:01 37.729760 -119.666624 179 34301ft 454kts
01-Jan-18 20:02 37.605133 -119.652438 179 34312ft 454kts
01-Jan-18 20:03 37.481898 -119.638408 179 34265ft 454kts
01-Jan-18 20:04 37.358280 -119.624335 179 34231ft 454kts
01-Jan-18 20:05 37.235871 -119.610400 179 34231ft 454kts
01-Jan-18 20:06 37.111787 -119.596273 179 34231ft 454kts
01-Jan-18 20:07 36.989664 -119.597230 185 34230ft 447kts
01-Jan-18 20:08 36.877592 -119.599317 184 34233ft 447kts
01-Jan-18 20:09 36.758190 -119.601386 184 34233ft 447kts
01-Jan-18 20:10 36.639624 -119.603421 184 34237ft 447kts
01-Jan-18 20:11 36.517189 -119.605520 184 34245ft 447kts
01-Jan-18 20:12 36.394841 -119.607620 184 34249ft 447kts
01-Jan-18 20:13 36.276780 -119.609643 184 34249ft 447kts
01-Jan-18 20:14 36.154706 -119.611727 184 32874ft 441kts
01-Jan-18 20:15 36.034579 -119.613839 184 30672ft 456kts
01-Jan-18 20:16 35.911400 -119.617198 185 28439ft 435kts
01-Jan-18 20:17 35.810545 -119.621010 184 26625ft 429kts
01-Jan-18 20:18 35.694281 -119.625287 184 24531ft 416kts
01-Jan-18 20:19 35.581910 -119.629439 184 22506ft 404kts
01-Jan-18 20:20 35.472449 -119.633466 183 20536ft 400kts
01-Jan-18 20:21 35.364266 -119.637456 183 18498ft 390kts
01-Jan-18 20:22 35.259924 -119.641302 183 16522ft 378kts
01-Jan-18 20:23 35.160314 -119.657864 189 14695ft 355kts
01-Jan-18 20:24 35.067930 -119.674100 188 13008ft 326kts
01-Jan-18 20:25 34.982376 -119.688970 188 11441ft 304kts
01-Jan-18 20:26 34.901214 -119.703091 186 9957ft 289kts
01-Jan-18 20:27 34.827163 -119.715893 187 8659ft 271kts
01-Jan-18 20:28 34.751389 -119.729042 187 8008ft 277kts
01-Jan-18 20:29 34.677954 -119.741795 187 8050ft 239kts
01-Jan-18 20:30 34.615051 -119.727514 162 7997ft 235kts
01-Jan-18 20:31 34.553605 -119.705176 162 6228ft 226kts
01-Jan-18 20:32 34.496414 -119.683806 161 4969ft 191kts
01-Jan-18 20:33 34.448274 -119.665759 162 5001ft 183kts
01-Jan-18 20:34 34.397880 -119.669956 199 4275ft 191kts
01-Jan-18 20:35 34.390654 -119.721526 313 2943ft 178kts
01-Jan-18 20:36 34.422616 -119.762037 302 1706ft 150kts
01-Jan-18 20:37 34.428260 -119.811368 268 544ft 145kts
01-Jan-18 20:38 34.427533 -119.852025 268 17ft 32kts
01-Jan-18 20:39 34.426416 -119.852796 89 17ft 20kts
01-Jan-18 20:40 34.426628 -119.842063 88 17ft 36kts
01-Jan-18 20:41 34.425133 -119.837228 114 15ft 2kts
01-Jan-18 20:42 34.425128 -119.837215 114 15ft 0kts
01-Jan-18 20:43 34.425128 -119.837215 114 15ft 0kts
01-Jan-18 20:44 34.425128 -119.837215 114 15ft 0kts
01-Jan-18 20:45 34.425128 -119.837215 114 15ft 0kts
01-Jan-18 20:46 34.425128 -119.837215 114 15ft 0kts
01-Jan-18 20:47 34.425128 -119.837215 114 15ft 0kts
01-Jan-18 20:48 34.425128 -119.837215 114 15ft 0kts
01-Jan-18 20:49 34.425128 -119.837215 114 15ft 0kts
01-Jan-18 20:50 34.425128 -119.837215 114 15ft 0kts
01-Jan-18 20:51 34.425128 -119.837215 114 15ft 0kts
01-Jan-18 20:52 34.425128 -119.837215 114 15ft 0kts
01-Jan-18 20:53 34.425128 -119.837215 114 15ft 0kts

Navigation Log

Ident Type
Flight plan parsing failed, navigation log unavailable